createdAt,value
2019-05-31T00:00:01.140Z,6.35
2019-05-31T00:01:06.636Z,5.15
2019-05-31T00:02:11.460Z,5.22
2019-05-31T00:03:17.064Z,5.80
2019-05-31T00:04:21.815Z,5.33
2019-05-31T00:05:29.659Z,4.90
2019-05-31T00:06:38.236Z,6.00
2019-05-31T00:07:43.768Z,5.67
2019-05-31T00:08:49.244Z,5.35
2019-05-31T00:09:55.833Z,6.37
2019-05-31T00:11:02.090Z,6.65
2019-05-31T00:12:07.866Z,5.45
2019-05-31T00:13:12.807Z,5.85
2019-05-31T00:14:25.920Z,6.65
2019-05-31T00:15:31.548Z,5.95
2019-05-31T00:16:42.737Z,6.05
2019-05-31T00:17:52.776Z,6.33
2019-05-31T00:18:59.085Z,6.15
2019-05-31T00:20:04.251Z,6.58
2019-05-31T00:21:09.936Z,6.37
2019-05-31T00:22:30.737Z,6.12
2019-05-31T00:23:54.322Z,5.80
2019-05-31T00:25:27.189Z,5.67
2019-05-31T00:26:32.502Z,5.47
2019-05-31T00:27:37.213Z,6.10
2019-05-31T00:28:42.761Z,6.17
2019-05-31T00:29:47.913Z,5.20
2019-05-31T00:30:58.089Z,5.65
2019-05-31T00:32:03.753Z,5.83
2019-05-31T00:33:09.184Z,6.00
2019-05-31T00:34:14.041Z,5.72
2019-05-31T00:35:19.383Z,5.50
2019-05-31T00:36:24.333Z,5.90
2019-05-31T00:37:29.635Z,5.17
2019-05-31T00:38:35.860Z,6.03
2019-05-31T00:39:41.352Z,6.10
2019-05-31T00:40:46.196Z,5.78
2019-05-31T00:41:51.561Z,5.33
2019-05-31T00:42:56.999Z,5.65
2019-05-31T00:44:03.679Z,6.55
2019-05-31T00:45:11.686Z,5.45
2019-05-31T00:46:16.959Z,6.12
2019-05-31T00:47:21.680Z,6.70
2019-05-31T00:48:28.545Z,6.05
2019-05-31T00:49:33.787Z,6.78
2019-05-31T00:50:41.363Z,6.83
2019-05-31T00:51:46.112Z,5.90
2019-05-31T00:52:52.395Z,6.60
2019-05-31T00:53:58.110Z,6.20
2019-05-31T00:55:04.266Z,5.92
2019-05-31T00:56:08.971Z,6.30
2019-05-31T00:57:14.351Z,5.45
2019-05-31T00:58:19.035Z,6.45
2019-05-31T00:59:24.304Z,6.03
2019-05-31T01:00:29.171Z,5.67
2019-05-31T01:01:34.765Z,8.33
2019-05-31T01:02:41.158Z,6.50
2019-05-31T01:03:46.495Z,7.95
2019-05-31T01:04:51.278Z,5.00
2019-05-31T01:05:57.317Z,6.35
2019-05-31T01:07:05.434Z,6.67
2019-05-31T01:08:10.821Z,6.28
2019-05-31T01:09:15.663Z,5.85
2019-05-31T01:10:21.572Z,7.20
2019-05-31T01:11:26.348Z,6.47
2019-05-31T01:12:31.612Z,6.50
2019-05-31T01:13:36.347Z,8.38
2019-05-31T01:14:49.987Z,6.58
2019-05-31T01:15:48.375Z,8.30
2019-05-31T01:16:53.658Z,8.15
2019-05-31T01:17:58.410Z,7.97
2019-05-31T01:19:06.999Z,7.03
2019-05-31T01:23:46.650Z,8.23
2019-05-31T01:24:51.921Z,8.93
2019-05-31T01:25:56.710Z,6.72
2019-05-31T01:27:01.880Z,5.83
2019-05-31T01:28:07.623Z,7.00
2019-05-31T01:29:12.858Z,6.55
2019-05-31T01:30:17.518Z,5.78
2019-05-31T01:31:22.592Z,7.58
2019-05-31T01:32:27.553Z,6.53
2019-05-31T01:33:32.902Z,7.70
2019-05-31T01:34:37.443Z,6.60
2019-05-31T01:35:42.560Z,8.08
2019-05-31T01:36:47.101Z,6.83
2019-05-31T01:37:52.229Z,7.05
2019-05-31T01:38:57.153Z,8.50
2019-05-31T01:40:02.764Z,10.38
2019-05-31T01:41:08.752Z,7.30
2019-05-31T01:42:14.592Z,8.35
2019-05-31T01:43:19.545Z,9.20
2019-05-31T01:44:24.692Z,9.13
2019-05-31T01:45:29.406Z,9.23
2019-05-31T01:46:34.723Z,10.40
2019-05-31T01:47:43.107Z,7.85
2019-05-31T01:48:49.009Z,10.90
2019-05-31T01:50:10.371Z,9.15
2019-05-31T01:51:15.804Z,7.83
2019-05-31T01:52:20.341Z,9.18
2019-05-31T01:53:27.771Z,8.78
2019-05-31T01:54:32.310Z,7.60
2019-05-31T01:55:38.210Z,7.28
2019-05-31T01:56:42.767Z,8.48
2019-05-31T01:57:50.199Z,7.40
2019-05-31T01:58:54.948Z,7.22
2019-05-31T02:00:00.151Z,8.68
2019-05-31T02:01:05.543Z,7.70
2019-05-31T02:02:11.411Z,6.58
2019-05-31T02:03:16.522Z,7.10
2019-05-31T02:04:21.632Z,5.80
2019-05-31T02:05:26.364Z,6.12
2019-05-31T02:06:31.611Z,5.70
2019-05-31T02:07:36.117Z,5.53
2019-05-31T02:08:41.363Z,6.60
2019-05-31T02:09:46.162Z,6.28
2019-05-31T02:10:53.609Z,5.80
2019-05-31T02:11:58.109Z,6.40
2019-05-31T02:13:03.245Z,6.45
2019-05-31T02:14:08.099Z,5.95
2019-05-31T02:15:29.791Z,6.50
2019-05-31T02:16:20.028Z,6.42
2019-05-31T02:17:25.124Z,5.75
2019-05-31T02:18:29.781Z,5.42
2019-05-31T02:19:34.905Z,6.15
2019-05-31T02:20:39.607Z,5.87
2019-05-31T02:21:44.724Z,6.53
2019-05-31T02:22:49.215Z,7.30
2019-05-31T02:23:54.428Z,5.70
2019-05-31T02:24:59.174Z,5.95
2019-05-31T02:26:07.173Z,7.05
2019-05-31T02:27:11.669Z,5.92
2019-05-31T02:28:16.846Z,8.65
2019-05-31T02:29:21.376Z,6.72
2019-05-31T02:30:26.586Z,6.87
2019-05-31T02:31:31.143Z,6.60
2019-05-31T02:32:36.255Z,6.17
2019-05-31T02:33:41.296Z,6.92
2019-05-31T02:34:46.405Z,6.25
2019-05-31T02:35:51.074Z,5.78
2019-05-31T02:36:56.271Z,5.90
2019-05-31T02:38:00.806Z,6.45
2019-05-31T02:39:09.414Z,7.20
2019-05-31T02:40:14.714Z,7.12
2019-05-31T02:41:21.107Z,5.85
2019-05-31T02:42:25.675Z,7.12
2019-05-31T02:43:31.224Z,7.08
2019-05-31T02:44:35.781Z,7.33
2019-05-31T02:45:47.277Z,7.10
2019-05-31T02:46:47.487Z,6.85
2019-05-31T02:47:52.660Z,7.15
2019-05-31T02:48:57.243Z,6.70
2019-05-31T02:50:02.343Z,6.33
2019-05-31T02:51:08.285Z,7.05
2019-05-31T02:52:17.505Z,6.12
2019-05-31T02:53:21.649Z,5.85
2019-05-31T02:54:26.744Z,6.03
2019-05-31T02:55:31.281Z,5.75
2019-05-31T02:56:38.120Z,6.75
2019-05-31T02:57:44.616Z,5.92
2019-05-31T02:58:52.766Z,5.53
2019-05-31T03:00:00.491Z,5.00
2019-05-31T03:01:05.630Z,5.85
2019-05-31T03:02:13.292Z,5.20
2019-05-31T03:03:20.334Z,6.03
2019-05-31T03:04:26.481Z,5.37
2019-05-31T03:05:36.355Z,6.00
2019-05-31T03:06:43.868Z,5.97
2019-05-31T03:07:50.327Z,6.92
2019-05-31T03:09:00.377Z,6.28
2019-05-31T03:10:05.781Z,5.55
2019-05-31T03:11:14.497Z,5.45
2019-05-31T03:12:21.041Z,6.12
2019-05-31T03:13:25.621Z,5.75
2019-05-31T03:14:34.463Z,4.85
2019-05-31T03:15:41.867Z,5.15
2019-05-31T03:16:49.141Z,5.25
2019-05-31T03:17:54.997Z,5.80
2019-05-31T03:19:01.296Z,5.60
2019-05-31T03:20:06.298Z,5.20
2019-05-31T03:21:12.374Z,5.17
2019-05-31T03:22:18.507Z,5.53
2019-05-31T03:23:24.411Z,5.17
2019-05-31T03:24:28.914Z,5.92
2019-05-31T03:25:34.025Z,5.60
2019-05-31T03:26:39.071Z,6.05
2019-05-31T03:27:44.202Z,5.70
2019-05-31T03:28:48.724Z,6.53
2019-05-31T03:29:53.801Z,6.15
2019-05-31T03:30:58.310Z,5.80
2019-05-31T03:32:06.375Z,4.90
2019-05-31T03:33:43.096Z,5.15
2019-05-31T03:34:50.508Z,6.65
2019-05-31T03:35:57.318Z,5.53
2019-05-31T03:37:02.642Z,6.15
2019-05-31T03:38:08.481Z,6.00
2019-05-31T03:39:14.537Z,5.70
2019-05-31T03:40:21.130Z,5.85
2019-05-31T03:41:26.816Z,5.95
2019-05-31T03:42:31.485Z,5.45
2019-05-31T03:43:36.660Z,5.55
2019-05-31T03:44:43.831Z,5.60
2019-05-31T03:45:52.221Z,5.45
2019-05-31T03:46:57.168Z,5.25
2019-05-31T03:48:02.919Z,6.42
2019-05-31T03:49:07.516Z,5.37
2019-05-31T03:50:12.677Z,5.37
2019-05-31T03:51:20.393Z,4.92
2019-05-31T03:52:27.431Z,5.83
2019-05-31T03:53:31.958Z,6.95
2019-05-31T03:54:37.722Z,6.37
2019-05-31T03:55:42.745Z,5.75
2019-05-31T03:56:48.089Z,5.28
2019-05-31T03:57:52.657Z,5.28
2019-05-31T03:58:57.845Z,5.72
2019-05-31T04:00:02.411Z,6.00
2019-05-31T04:01:07.682Z,6.80
2019-05-31T04:02:17.367Z,6.78
2019-05-31T04:03:21.138Z,8.93
2019-05-31T04:04:30.097Z,6.50
2019-05-31T04:05:35.688Z,7.78
2019-05-31T04:06:40.589Z,7.78
2019-05-31T04:07:45.771Z,8.05
2019-05-31T04:08:50.417Z,7.12
2019-05-31T04:09:56.393Z,8.85
2019-05-31T04:11:00.926Z,8.53
2019-05-31T04:12:06.168Z,9.68
2019-05-31T04:13:11.201Z,7.17
2019-05-31T04:14:18.291Z,6.28
2019-05-31T04:15:23.692Z,7.03
2019-05-31T04:16:48.389Z,5.80
2019-05-31T04:17:35.156Z,7.17
2019-05-31T04:18:40.335Z,7.33
2019-05-31T04:19:44.906Z,7.40
2019-05-31T04:20:50.147Z,6.35
2019-05-31T04:21:54.746Z,7.30
2019-05-31T04:22:59.948Z,7.03
2019-05-31T04:24:04.922Z,8.75
2019-05-31T04:25:10.479Z,8.28
2019-05-31T04:26:15.872Z,6.78
2019-05-31T04:27:24.429Z,7.85
2019-05-31T04:28:30.359Z,7.25
2019-05-31T04:29:36.722Z,7.05
2019-05-31T04:30:42.229Z,6.62
2019-05-31T04:31:51.102Z,6.97
2019-05-31T04:32:55.692Z,6.45
2019-05-31T04:34:01.663Z,7.60
2019-05-31T04:35:06.961Z,5.65
2019-05-31T04:36:12.233Z,6.30
2019-05-31T04:37:18.214Z,6.75
2019-05-31T04:38:25.350Z,7.85
2019-05-31T04:39:33.945Z,6.65
2019-05-31T04:40:39.333Z,7.37
2019-05-31T04:41:43.992Z,7.25
2019-05-31T04:42:49.229Z,8.03
2019-05-31T04:43:58.194Z,6.37
2019-05-31T04:45:01.560Z,8.25
2019-05-31T04:46:06.144Z,7.83
2019-05-31T04:47:12.204Z,7.85
2019-05-31T04:48:18.160Z,9.03
2019-05-31T04:49:30.706Z,8.78
2019-05-31T04:50:35.384Z,8.45
2019-05-31T04:51:40.683Z,9.88
2019-05-31T04:52:45.620Z,7.60
2019-05-31T04:53:50.817Z,7.92
2019-05-31T04:54:55.585Z,8.25
2019-05-31T04:56:01.291Z,8.15
2019-05-31T04:57:05.871Z,6.35
2019-05-31T04:58:11.042Z,7.95
2019-05-31T04:59:16.330Z,8.13
2019-05-31T05:00:24.012Z,8.10
2019-05-31T05:01:27.949Z,7.58
2019-05-31T05:02:33.681Z,8.08
2019-05-31T05:03:38.326Z,7.33
2019-05-31T05:04:43.512Z,7.87
2019-05-31T05:05:48.080Z,9.10
2019-05-31T05:06:53.459Z,8.05
2019-05-31T05:07:59.133Z,9.13
2019-05-31T05:09:06.241Z,7.58
2019-05-31T05:10:11.189Z,6.42
2019-05-31T05:11:16.506Z,7.58
2019-05-31T05:12:22.540Z,7.58
2019-05-31T05:13:27.853Z,8.70
2019-05-31T05:14:32.436Z,9.40
2019-05-31T05:15:37.744Z,8.58
2019-05-31T05:16:42.343Z,7.45
2019-05-31T05:17:47.605Z,7.75
2019-05-31T05:18:52.270Z,9.40
2019-05-31T05:19:57.792Z,6.47
2019-05-31T05:21:02.882Z,6.35
2019-05-31T05:22:08.232Z,7.45
2019-05-31T05:23:12.824Z,9.00
2019-05-31T05:24:19.523Z,12.98
2019-05-31T05:25:25.247Z,12.20
2019-05-31T05:26:30.473Z,11.70
2019-05-31T05:27:35.782Z,41.53
2019-05-31T05:28:41.347Z,77.58
2019-05-31T05:29:46.116Z,61.68
2019-05-31T05:30:51.366Z,36.03
2019-05-31T05:31:56.136Z,43.20
2019-05-31T05:33:01.505Z,37.98
2019-05-31T05:34:06.249Z,22.87
2019-05-31T05:35:12.091Z,25.65
2019-05-31T05:36:18.146Z,22.95
2019-05-31T05:37:24.555Z,20.52
2019-05-31T05:38:29.120Z,14.85
2019-05-31T05:39:34.271Z,7.00
2019-05-31T05:40:40.911Z,7.08
2019-05-31T05:41:47.207Z,7.60
2019-05-31T05:42:51.921Z,7.20
2019-05-31T05:43:57.973Z,7.42
2019-05-31T05:45:02.852Z,6.80
2019-05-31T05:46:08.237Z,6.70
2019-05-31T05:47:13.102Z,7.85
2019-05-31T05:48:19.334Z,7.25
2019-05-31T05:49:24.085Z,6.35
2019-05-31T05:50:36.350Z,5.62
2019-05-31T05:51:47.084Z,6.70
2019-05-31T05:52:52.297Z,5.85
2019-05-31T05:53:57.276Z,6.05
2019-05-31T05:55:05.751Z,5.42
2019-05-31T05:56:10.415Z,6.75
2019-05-31T05:57:16.176Z,5.37
2019-05-31T05:58:21.060Z,5.58
2019-05-31T05:59:27.301Z,5.35
2019-05-31T06:00:33.356Z,7.35
2019-05-31T06:01:38.592Z,4.08
2019-05-31T06:02:43.620Z,3.60
2019-05-31T06:03:49.555Z,4.03
2019-05-31T06:04:54.225Z,3.33
2019-05-31T06:05:59.557Z,4.17
2019-05-31T06:07:20.428Z,4.33
2019-05-31T06:08:28.390Z,5.50
2019-05-31T06:09:32.628Z,4.35
2019-05-31T06:10:37.977Z,3.87
2019-05-31T06:11:42.855Z,3.90
2019-05-31T06:12:48.266Z,3.80
2019-05-31T06:13:53.464Z,3.70
2019-05-31T06:14:58.652Z,4.25
2019-05-31T06:16:03.281Z,4.37
2019-05-31T06:17:09.034Z,3.85
2019-05-31T06:18:14.146Z,3.83
2019-05-31T06:19:19.845Z,3.50
2019-05-31T06:20:24.443Z,3.37
2019-05-31T06:21:30.831Z,4.25
2019-05-31T06:22:38.392Z,4.55
2019-05-31T06:23:46.495Z,4.15
2019-05-31T06:24:52.031Z,4.90
2019-05-31T06:25:57.501Z,3.37
2019-05-31T06:27:02.677Z,4.40
2019-05-31T06:28:09.215Z,3.65
2019-05-31T06:29:14.333Z,3.55
2019-05-31T06:30:21.657Z,4.17
2019-05-31T06:31:26.774Z,3.72
2019-05-31T06:32:41.701Z,4.15
2019-05-31T06:33:46.275Z,3.85
2019-05-31T06:34:51.597Z,3.70
2019-05-31T06:36:15.008Z,3.70
2019-05-31T06:37:21.854Z,4.35
2019-05-31T06:38:27.368Z,4.50
2019-05-31T06:39:33.188Z,3.55
2019-05-31T06:40:43.671Z,5.40
2019-05-31T06:41:49.312Z,4.08
2019-05-31T06:42:54.553Z,4.53
2019-05-31T06:43:59.846Z,4.00
2019-05-31T06:45:05.054Z,3.65
2019-05-31T06:46:10.594Z,3.52
2019-05-31T06:47:43.564Z,3.50
2019-05-31T06:48:49.420Z,2.87
2019-05-31T06:49:54.408Z,3.15
2019-05-31T06:51:05.840Z,3.35
2019-05-31T06:52:10.184Z,3.50
2019-05-31T06:53:17.002Z,3.80
2019-05-31T06:54:22.677Z,2.67
2019-05-31T06:55:29.336Z,3.60
2019-05-31T06:56:37.168Z,4.03
2019-05-31T06:57:42.315Z,3.58
2019-05-31T06:58:47.093Z,3.52
2019-05-31T06:59:53.028Z,3.80
2019-05-31T07:00:58.061Z,3.10
2019-05-31T07:02:03.386Z,3.60
2019-05-31T07:03:11.000Z,4.00
2019-05-31T07:04:20.858Z,3.70
2019-05-31T07:05:27.572Z,3.85
2019-05-31T07:06:36.861Z,3.95
2019-05-31T07:07:42.634Z,3.20
2019-05-31T07:08:50.937Z,4.50
2019-05-31T07:09:56.386Z,5.42
2019-05-31T07:11:01.606Z,3.80
2019-05-31T07:12:16.645Z,5.55
2019-05-31T07:14:19.481Z,5.22
2019-05-31T07:16:04.230Z,6.65
2019-05-31T07:17:15.681Z,10.38
2019-05-31T07:18:55.666Z,5.65
2019-05-31T07:20:10.043Z,4.85
2019-05-31T07:21:34.431Z,5.22
2019-05-31T07:22:49.577Z,7.72
2019-05-31T07:23:54.947Z,6.55
2019-05-31T07:25:04.201Z,4.78
2019-05-31T07:26:34.965Z,3.10
2019-05-31T07:27:40.649Z,4.17
2019-05-31T07:28:46.098Z,7.22
2019-05-31T07:29:51.639Z,5.78
2019-05-31T07:30:57.056Z,5.90
2019-05-31T07:32:11.788Z,5.70
2019-05-31T07:33:26.129Z,4.05
2019-05-31T07:34:31.841Z,5.55
2019-05-31T07:36:17.511Z,5.22
2019-05-31T07:37:31.176Z,3.67
2019-05-31T07:38:30.467Z,3.77
2019-05-31T07:39:37.169Z,3.90
2019-05-31T07:40:48.674Z,4.70
2019-05-31T07:42:01.043Z,3.60
2019-05-31T07:43:06.658Z,3.47
2019-05-31T07:44:14.242Z,3.70
2019-05-31T07:45:59.243Z,3.92
2019-05-31T07:47:08.131Z,3.30
2019-05-31T07:48:11.444Z,3.30
2019-05-31T07:49:21.450Z,4.65
2019-05-31T07:50:32.284Z,3.08
2019-05-31T07:51:38.501Z,3.30
2019-05-31T07:52:47.183Z,4.42
2019-05-31T07:53:54.872Z,4.20
2019-05-31T07:55:02.400Z,5.00
2019-05-31T07:56:17.072Z,4.37
2019-05-31T07:57:29.150Z,3.87
2019-05-31T07:58:34.220Z,3.30
2019-05-31T07:59:42.524Z,5.40
2019-05-31T08:00:51.120Z,4.30
2019-05-31T08:02:01.508Z,2.50
2019-05-31T08:03:07.721Z,3.47
2019-05-31T08:04:13.142Z,3.80
2019-05-31T08:05:33.553Z,3.75
2019-05-31T08:06:40.319Z,3.90
2019-05-31T08:07:45.086Z,3.00
2019-05-31T08:08:52.704Z,3.55
2019-05-31T08:09:57.911Z,4.00
2019-05-31T08:11:04.745Z,2.72
2019-05-31T08:12:09.420Z,2.60
2019-05-31T08:13:16.132Z,3.33
2019-05-31T08:14:25.260Z,4.58
2019-05-31T08:15:58.165Z,3.10
2019-05-31T08:17:05.181Z,3.60
2019-05-31T08:18:10.984Z,3.90
2019-05-31T08:19:17.679Z,3.90
2019-05-31T08:20:25.449Z,4.75
2019-05-31T08:21:33.700Z,4.30
2019-05-31T08:22:39.491Z,3.60
2019-05-31T08:23:44.326Z,3.80
2019-05-31T08:24:58.661Z,3.50
2019-05-31T08:26:03.329Z,3.67
2019-05-31T08:27:10.233Z,3.12
2019-05-31T08:28:16.252Z,3.77
2019-05-31T08:29:21.724Z,4.10
2019-05-31T08:30:28.062Z,4.92
2019-05-31T08:31:34.987Z,3.12
2019-05-31T08:32:39.748Z,3.10
2019-05-31T08:33:47.795Z,2.85
2019-05-31T08:34:53.428Z,5.00
2019-05-31T08:35:59.095Z,4.00
2019-05-31T08:37:08.691Z,3.02
2019-05-31T08:38:12.072Z,4.50
2019-05-31T08:39:17.076Z,6.45
2019-05-31T08:40:24.802Z,4.03
2019-05-31T08:41:30.555Z,3.85
2019-05-31T08:42:36.778Z,3.58
2019-05-31T08:43:42.614Z,3.45
2019-05-31T08:44:48.109Z,4.37
2019-05-31T08:45:53.029Z,3.85
2019-05-31T08:47:02.487Z,3.52
2019-05-31T08:48:09.174Z,3.62
2019-05-31T08:49:30.744Z,3.80
2019-05-31T08:50:21.795Z,2.85
2019-05-31T08:51:31.185Z,3.52
2019-05-31T08:52:46.432Z,3.15
2019-05-31T08:53:52.985Z,3.00
2019-05-31T08:54:57.904Z,3.37
2019-05-31T08:56:03.248Z,2.90
2019-05-31T08:57:08.275Z,3.35
2019-05-31T08:58:14.032Z,3.22
2019-05-31T08:59:20.182Z,3.37
2019-05-31T09:00:27.875Z,4.58
2019-05-31T09:01:34.009Z,3.25
2019-05-31T09:02:39.629Z,3.30
2019-05-31T09:03:45.094Z,3.22
2019-05-31T09:04:50.736Z,3.35
2019-05-31T09:05:56.041Z,3.62
2019-05-31T09:07:01.662Z,3.98
2019-05-31T09:08:06.315Z,4.30
2019-05-31T09:09:12.707Z,3.40
2019-05-31T09:10:20.086Z,3.37
2019-05-31T09:11:25.571Z,3.20
2019-05-31T09:12:31.595Z,3.85
2019-05-31T09:13:38.315Z,4.62
2019-05-31T09:14:46.105Z,3.35
2019-05-31T09:15:51.436Z,2.90
2019-05-31T09:16:56.124Z,2.70
2019-05-31T09:18:04.603Z,3.00
2019-05-31T09:19:11.092Z,2.80
2019-05-31T09:20:17.193Z,3.65
2019-05-31T09:21:22.196Z,5.00
2019-05-31T09:22:28.187Z,3.72
2019-05-31T09:24:44.834Z,4.37
2019-05-31T09:25:22.399Z,3.70
2019-05-31T09:26:30.169Z,2.92
2019-05-31T09:27:55.376Z,4.22
2019-05-31T09:28:49.443Z,3.80
2019-05-31T09:30:18.033Z,4.65
2019-05-31T09:31:22.201Z,3.20
2019-05-31T09:32:54.235Z,2.92
2019-05-31T09:34:56.196Z,3.85
2019-05-31T09:36:26.727Z,4.00
2019-05-31T09:37:37.036Z,3.00
2019-05-31T09:39:34.934Z,3.37
2019-05-31T09:40:49.240Z,3.30
2019-05-31T09:42:37.285Z,2.90
2019-05-31T09:43:58.255Z,3.72
2019-05-31T09:44:44.250Z,3.50
2019-05-31T09:45:59.240Z,2.85
2019-05-31T09:47:13.440Z,3.87
2019-05-31T09:48:43.752Z,3.95
2019-05-31T09:51:04.652Z,4.28
2019-05-31T09:52:23.191Z,3.17
2019-05-31T09:53:46.764Z,3.33
2019-05-31T09:55:15.974Z,3.27
2019-05-31T09:56:25.647Z,2.95
2019-05-31T09:57:46.977Z,2.90
2019-05-31T09:58:55.868Z,3.22
2019-05-31T10:00:02.211Z,3.30
2019-05-31T10:01:12.879Z,4.95
2019-05-31T10:02:49.248Z,4.87
2019-05-31T10:04:07.198Z,2.70
2019-05-31T10:05:15.816Z,3.10
2019-05-31T10:06:30.433Z,3.92
2019-05-31T10:07:36.378Z,2.85
2019-05-31T10:08:44.938Z,3.40
2019-05-31T10:09:49.552Z,2.83
2019-05-31T10:10:56.855Z,4.00
2019-05-31T10:12:02.896Z,3.65
2019-05-31T10:13:07.805Z,3.30
2019-05-31T10:14:13.467Z,13.00
2019-05-31T10:15:20.603Z,4.17
2019-05-31T10:16:26.141Z,3.77
2019-05-31T10:17:32.456Z,3.02
2019-05-31T10:18:39.242Z,3.10
2019-05-31T10:19:44.660Z,3.35
2019-05-31T10:21:15.812Z,3.47
2019-05-31T10:22:24.948Z,3.15
2019-05-31T10:23:54.753Z,3.17
2019-05-31T10:24:48.195Z,3.20
2019-05-31T10:25:54.634Z,3.00
2019-05-31T10:27:01.043Z,2.80
2019-05-31T10:28:06.963Z,2.40
2019-05-31T10:29:13.721Z,3.10
2019-05-31T10:32:59.687Z,2.80
2019-05-31T10:34:05.452Z,2.37
2019-05-31T10:35:13.216Z,2.42
2019-05-31T10:36:21.982Z,3.05
2019-05-31T10:37:29.493Z,2.90
2019-05-31T10:38:36.507Z,3.10
2019-05-31T10:39:42.861Z,3.85
2019-05-31T10:40:51.749Z,26.45
2019-05-31T10:41:58.192Z,12.82
2019-05-31T10:43:03.665Z,13.68
2019-05-31T10:44:08.286Z,30.65
2019-05-31T10:45:17.056Z,35.48
2019-05-31T10:46:22.919Z,10.00
2019-05-31T10:47:28.069Z,6.60
2019-05-31T10:48:34.491Z,5.05
2019-05-31T10:49:42.338Z,2.75
2019-05-31T10:50:57.601Z,2.80
2019-05-31T10:51:56.783Z,2.55
2019-05-31T10:53:02.065Z,2.62
2019-05-31T10:54:14.708Z,2.92
2019-05-31T10:55:19.295Z,4.08
2019-05-31T10:56:28.069Z,2.72
2019-05-31T10:57:34.044Z,2.42
2019-05-31T10:58:44.907Z,2.90
2019-05-31T10:59:52.692Z,2.70
2019-05-31T11:01:00.021Z,2.22
2019-05-31T11:02:04.987Z,2.55
2019-05-31T11:03:10.155Z,2.72
2019-05-31T11:04:15.349Z,1.87
2019-05-31T11:05:21.009Z,2.05
2019-05-31T11:06:30.812Z,1.90
2019-05-31T11:07:36.834Z,13.35
2019-05-31T11:08:45.362Z,6.17
2019-05-31T11:09:51.598Z,4.22
2019-05-31T11:10:56.378Z,2.50
2019-05-31T11:12:04.340Z,2.80
2019-05-31T11:13:09.330Z,2.60
2019-05-31T11:14:17.885Z,2.10
2019-05-31T11:15:24.204Z,2.40
2019-05-31T11:16:35.679Z,2.60
2019-05-31T11:17:46.676Z,2.60
2019-05-31T11:18:52.816Z,1.90
2019-05-31T11:20:04.178Z,1.62
2019-05-31T11:21:04.201Z,2.55
2019-05-31T11:22:09.166Z,2.42
2019-05-31T11:23:16.370Z,2.05
2019-05-31T11:24:21.080Z,2.47
2019-05-31T11:25:26.723Z,2.55
2019-05-31T11:26:31.456Z,3.77
2019-05-31T11:27:38.111Z,2.65
2019-05-31T11:28:44.193Z,2.20
2019-05-31T11:29:54.572Z,2.92
2019-05-31T11:31:01.282Z,4.67
2019-05-31T11:32:09.670Z,4.53
2019-05-31T11:33:42.197Z,4.80
2019-05-31T11:34:44.385Z,3.52
2019-05-31T11:35:49.293Z,3.45
2019-05-31T11:36:54.932Z,4.85
2019-05-31T11:37:59.712Z,4.08
2019-05-31T11:39:08.160Z,3.25
2019-05-31T11:40:13.208Z,7.08
2019-05-31T11:41:25.240Z,3.98
2019-05-31T11:42:30.431Z,2.60
2019-05-31T11:43:36.787Z,3.12
2019-05-31T11:44:43.656Z,2.30
2019-05-31T11:45:49.175Z,2.33
2019-05-31T11:46:54.926Z,2.45
2019-05-31T11:48:00.694Z,2.45
2019-05-31T11:49:05.374Z,3.30
2019-05-31T11:50:11.928Z,3.30
2019-05-31T11:51:29.535Z,5.20
2019-05-31T11:52:30.603Z,3.87
2019-05-31T11:53:41.878Z,4.42
2019-05-31T11:55:10.357Z,3.90
2019-05-31T11:55:49.551Z,2.75
2019-05-31T11:56:55.184Z,3.02
2019-05-31T11:57:59.832Z,3.65
2019-05-31T11:59:05.853Z,5.95
2019-05-31T12:00:13.154Z,3.15
2019-05-31T12:01:18.475Z,2.87
2019-05-31T12:02:23.828Z,3.47
2019-05-31T12:03:29.800Z,3.67
2019-05-31T12:04:34.436Z,3.00
2019-05-31T12:05:42.104Z,8.25
2019-05-31T12:06:47.770Z,6.50
2019-05-31T12:08:02.860Z,6.53
2019-05-31T12:09:07.748Z,7.12
2019-05-31T12:10:14.007Z,4.50
2019-05-31T12:11:18.611Z,5.12
2019-05-31T12:12:27.007Z,3.65
2019-05-31T12:13:36.173Z,7.00
2019-05-31T12:14:42.973Z,7.75
2019-05-31T12:15:48.277Z,3.65
2019-05-31T12:16:55.431Z,2.90
2019-05-31T12:17:59.933Z,3.08
2019-05-31T12:19:05.175Z,5.20
2019-05-31T12:20:15.822Z,4.00
2019-05-31T12:21:17.376Z,4.22
2019-05-31T12:22:24.899Z,3.30
2019-05-31T12:23:30.698Z,3.27
2019-05-31T12:24:36.394Z,4.03
2019-05-31T12:25:42.838Z,3.58
2019-05-31T12:26:49.146Z,4.17
2019-05-31T12:27:58.466Z,4.42
2019-05-31T12:29:03.451Z,5.15
2019-05-31T12:30:21.467Z,6.78
2019-05-31T12:31:18.429Z,4.67
2019-05-31T12:32:23.762Z,6.00
2019-05-31T12:33:29.269Z,6.67
2019-05-31T12:34:34.850Z,4.72
2019-05-31T12:35:40.138Z,5.35
2019-05-31T12:36:46.662Z,9.08
2019-05-31T12:37:52.324Z,5.33
2019-05-31T12:38:57.784Z,5.22
2019-05-31T12:40:02.318Z,5.83
2019-05-31T12:41:07.779Z,4.90
2019-05-31T12:42:12.576Z,4.95
2019-05-31T12:43:17.755Z,8.00
2019-05-31T12:44:24.233Z,12.73
2019-05-31T12:45:29.560Z,11.73
2019-05-31T12:46:34.198Z,12.53
2019-05-31T12:47:41.326Z,10.32
2019-05-31T12:48:47.050Z,8.78
2019-05-31T12:49:58.096Z,5.37
2019-05-31T12:51:00.945Z,7.30
2019-05-31T12:52:07.237Z,6.05
2019-05-31T12:53:15.079Z,6.58
2019-05-31T12:54:24.178Z,12.50
2019-05-31T12:55:29.380Z,6.70
2019-05-31T12:56:37.282Z,5.55
2019-05-31T12:57:44.826Z,5.62
2019-05-31T12:58:59.177Z,4.40
2019-05-31T13:00:05.215Z,5.45
2019-05-31T13:02:17.733Z,3.25
2019-05-31T13:03:26.642Z,7.42
2019-05-31T13:04:36.293Z,25.43
2019-05-31T13:05:39.827Z,30.23
2019-05-31T13:07:16.929Z,18.20
2019-05-31T13:08:27.033Z,8.50
2019-05-31T13:10:09.623Z,8.70
2019-05-31T13:11:15.096Z,8.60
2019-05-31T13:12:42.811Z,6.85
2019-05-31T13:13:55.578Z,4.05
2019-05-31T13:15:06.697Z,3.75
2019-05-31T13:16:25.712Z,3.40
2019-05-31T13:17:40.715Z,6.22
2019-05-31T13:18:49.580Z,3.70
2019-05-31T13:19:57.369Z,7.92
2019-05-31T13:21:05.446Z,3.67
2019-05-31T13:22:24.674Z,2.83
2019-05-31T13:23:31.845Z,57.35
2019-05-31T13:24:40.841Z,21.23
2019-05-31T13:26:00.786Z,15.03
2019-05-31T13:27:25.634Z,27.27
2019-05-31T13:28:33.139Z,31.93
2019-05-31T13:29:40.174Z,14.38
2019-05-31T13:30:48.729Z,29.50
2019-05-31T13:31:58.579Z,8.50
2019-05-31T13:33:12.957Z,4.72
2019-05-31T13:34:18.680Z,6.65
2019-05-31T13:35:33.723Z,7.00
2019-05-31T13:36:51.072Z,16.90
2019-05-31T13:37:56.845Z,5.85
2019-05-31T13:42:04.314Z,5.40
2019-05-31T13:43:12.738Z,12.55
2019-05-31T13:44:19.441Z,6.55
2019-05-31T13:45:47.506Z,12.05
2019-05-31T13:48:10.530Z,9.40
2019-05-31T13:49:33.297Z,11.48
2019-05-31T13:50:52.616Z,8.88
2019-05-31T13:52:08.320Z,4.15
2019-05-31T13:53:18.092Z,4.15
2019-05-31T13:54:26.631Z,9.75
2019-05-31T13:55:38.664Z,5.30
2019-05-31T13:56:55.608Z,4.10
2019-05-31T13:58:00.428Z,3.67
2019-05-31T13:59:13.052Z,8.68
2019-05-31T14:00:40.035Z,19.10
2019-05-31T14:01:37.404Z,8.58
2019-05-31T14:02:47.247Z,13.95
2019-05-31T14:04:21.393Z,15.15
2019-05-31T14:05:29.712Z,17.75
2019-05-31T14:06:43.095Z,7.25
2019-05-31T14:07:54.570Z,12.00
2019-05-31T14:09:10.088Z,7.17
2019-05-31T14:10:18.706Z,46.45
2019-05-31T14:11:25.208Z,39.78
2019-05-31T14:12:43.982Z,53.13
2019-05-31T14:14:02.086Z,26.35
2019-05-31T14:15:16.193Z,51.92
2019-05-31T14:16:32.111Z,87.40
2019-05-31T14:17:33.770Z,12.93
2019-05-31T14:18:50.391Z,14.87
2019-05-31T14:19:56.446Z,17.27
2019-05-31T14:21:02.077Z,5.70
2019-05-31T14:22:14.312Z,56.40
2019-05-31T14:23:21.287Z,19.92
2019-05-31T14:24:36.087Z,29.15
2019-05-31T14:25:43.458Z,13.60
2019-05-31T14:26:51.181Z,6.15
2019-05-31T14:27:59.203Z,4.92
2019-05-31T14:29:05.081Z,5.20
2019-05-31T14:30:11.037Z,5.28
2019-05-31T14:31:20.079Z,7.33
2019-05-31T14:32:30.801Z,13.03
2019-05-31T14:33:45.079Z,6.58
2019-05-31T14:34:46.923Z,12.60
2019-05-31T14:35:52.193Z,8.95
2019-05-31T14:37:03.251Z,13.65
2019-05-31T14:38:08.918Z,29.00
2019-05-31T14:39:14.335Z,10.63
2019-05-31T14:40:29.656Z,21.62
2019-05-31T14:41:38.321Z,8.63
2019-05-31T14:42:48.482Z,27.60
2019-05-31T14:43:54.731Z,29.07
2019-05-31T14:44:59.516Z,16.25
2019-05-31T14:46:06.763Z,16.02
2019-05-31T14:47:11.534Z,32.23
2019-05-31T14:48:17.461Z,29.07
2019-05-31T14:49:30.380Z,11.43
2019-05-31T14:50:33.118Z,7.83
2019-05-31T14:51:37.575Z,5.15
2019-05-31T14:52:45.013Z,6.90
2019-05-31T14:54:03.242Z,14.00
2019-05-31T14:55:40.459Z,22.02
2019-05-31T14:57:03.369Z,14.23
2019-05-31T14:58:30.983Z,9.25
2019-05-31T14:59:39.331Z,6.28
2019-05-31T15:00:48.734Z,11.12
2019-05-31T15:01:55.058Z,13.93
2019-05-31T15:03:07.719Z,38.50
2019-05-31T15:04:31.373Z,10.25
2019-05-31T15:05:44.521Z,9.78
2019-05-31T15:07:04.989Z,8.85
2019-05-31T15:08:15.865Z,17.02
2019-05-31T15:09:22.590Z,4.35
2019-05-31T15:10:29.156Z,5.22
2019-05-31T15:11:39.772Z,4.30
2019-05-31T15:12:47.390Z,5.60
2019-05-31T15:13:53.952Z,4.53
2019-05-31T15:15:00.311Z,4.70
2019-05-31T15:16:05.369Z,27.55
2019-05-31T15:17:14.363Z,5.65